createdAt,value
2018-08-04T00:02:59.857Z,39.84
2018-08-04T00:08:03.496Z,39.52
2018-08-04T00:13:07.129Z,39.65
2018-08-04T00:18:10.577Z,39.49
2018-08-04T00:23:14.015Z,39.39
2018-08-04T00:28:17.529Z,39.46
2018-08-04T00:33:21.003Z,39.17
2018-08-04T00:38:24.513Z,39.60
2018-08-04T00:43:28.009Z,39.63
2018-08-04T00:48:31.861Z,39.34
2018-08-04T00:53:35.785Z,39.08
2018-08-04T00:58:39.799Z,38.97
2018-08-04T01:03:43.556Z,38.26
2018-08-04T01:08:47.217Z,38.23
2018-08-04T01:13:50.913Z,37.74
2018-08-04T01:18:54.924Z,37.66
2018-08-04T01:23:58.538Z,38.11
2018-08-04T01:29:01.957Z,37.24
2018-08-04T01:34:05.418Z,37.30
2018-08-04T01:39:10.446Z,37.60
2018-08-04T01:44:13.909Z,37.82
2018-08-04T01:49:17.634Z,37.16
2018-08-04T01:54:21.169Z,37.07
2018-08-04T01:59:24.661Z,37.36
2018-08-04T02:04:28.396Z,36.69
2018-08-04T02:09:31.968Z,36.93
2018-08-04T02:14:35.481Z,37.12
2018-08-04T02:19:39.063Z,36.99
2018-08-04T02:24:42.607Z,36.77
2018-08-04T02:29:46.365Z,36.88
2018-08-04T02:34:49.794Z,36.79
2018-08-04T02:39:53.814Z,36.84
2018-08-04T02:44:57.343Z,36.58
2018-08-04T02:50:00.902Z,37.22
2018-08-04T02:55:04.775Z,37.06
2018-08-04T03:00:09.497Z,37.77
2018-08-04T03:05:13.047Z,37.12
2018-08-04T03:10:16.585Z,37.80
2018-08-04T03:15:20.433Z,37.70
2018-08-04T03:20:23.910Z,37.97
2018-08-04T03:25:27.786Z,37.96
2018-08-04T03:30:32.113Z,37.75
2018-08-04T03:35:35.605Z,38.08
2018-08-04T03:40:39.394Z,38.84
2018-08-04T03:45:44.161Z,38.23
2018-08-04T03:50:48.581Z,38.75
2018-08-04T03:55:53.252Z,38.42
2018-08-04T04:00:57.873Z,38.63
2018-08-04T04:06:01.833Z,38.56
2018-08-04T04:11:05.532Z,39.13
2018-08-04T04:16:09.109Z,39.56
2018-08-04T04:21:13.048Z,39.28
2018-08-04T04:26:16.674Z,38.89
2018-08-04T04:31:20.762Z,38.59
2018-08-04T04:36:24.726Z,39.33
2018-08-04T04:41:28.309Z,39.61
2018-08-04T04:46:36.243Z,39.07
2018-08-04T04:51:40.572Z,38.81
2018-08-04T04:56:45.269Z,39.00
2018-08-04T05:01:49.236Z,39.33
2018-08-04T05:06:52.833Z,39.01
2018-08-04T05:11:56.358Z,38.64
2018-08-04T05:17:00.209Z,39.03
2018-08-04T05:22:04.014Z,38.30
2018-08-04T05:27:08.042Z,38.51
2018-08-04T05:32:11.897Z,38.58
2018-08-04T05:37:15.497Z,39.45
2018-08-04T05:42:19.135Z,39.66
2018-08-04T05:47:22.824Z,39.92
2018-08-04T05:52:26.468Z,39.42
2018-08-04T05:57:30.487Z,39.66
2018-08-04T06:02:34.239Z,39.57
2018-08-04T06:07:37.797Z,39.71
2018-08-04T06:12:41.829Z,39.66
2018-08-04T06:17:45.976Z,40.12
2018-08-04T06:22:49.815Z,40.14
2018-08-04T06:27:53.833Z,40.25
2018-08-04T06:32:57.825Z,39.73
2018-08-04T06:38:01.893Z,40.47
2018-08-04T06:43:05.610Z,41.41
2018-08-04T06:48:09.356Z,41.55
2018-08-04T06:53:13.071Z,42.22
2018-08-04T06:58:17.137Z,41.29
2018-08-04T07:03:20.653Z,41.61
2018-08-04T07:08:24.090Z,41.40
2018-08-04T07:13:27.513Z,42.12
2018-08-04T07:18:31.016Z,41.67
2018-08-04T07:23:34.636Z,41.98
2018-08-04T07:28:38.164Z,42.39
2018-08-04T07:33:41.625Z,42.79
2018-08-04T07:38:45.211Z,42.49
2018-08-04T07:43:49.057Z,42.69
2018-08-04T07:48:52.672Z,42.58
2018-08-04T07:53:56.417Z,43.17
2018-08-04T07:59:00.435Z,42.97
2018-08-04T08:04:03.953Z,43.80
2018-08-04T08:09:08.477Z,43.43
2018-08-04T08:14:11.994Z,43.84
2018-08-04T08:19:15.784Z,43.66
2018-08-04T08:24:19.258Z,44.55
2018-08-04T08:29:22.745Z,44.15
2018-08-04T08:34:26.469Z,44.73
2018-08-04T08:39:30.263Z,44.92
2018-08-04T08:44:33.849Z,44.45
2018-08-04T08:49:37.433Z,44.86
2018-08-04T08:54:40.903Z,44.16
2018-08-04T08:59:44.421Z,44.05
2018-08-04T09:04:51.563Z,44.28
2018-08-04T09:09:55.372Z,43.75
2018-08-04T09:14:59.156Z,44.04
2018-08-04T09:20:02.778Z,44.16
2018-08-04T09:25:07.428Z,44.56
2018-08-04T09:30:13.026Z,44.55
2018-08-04T09:35:16.953Z,44.32
2018-08-04T09:40:20.482Z,44.57
2018-08-04T09:45:23.997Z,44.67
2018-08-04T09:50:27.670Z,44.35
2018-08-04T09:55:31.301Z,44.66
2018-08-04T10:00:40.239Z,45.24
2018-08-04T10:05:43.997Z,45.95
2018-08-04T10:10:47.904Z,45.80
2018-08-04T10:15:51.557Z,46.12
2018-08-04T10:20:55.302Z,45.90
2018-08-04T10:25:58.951Z,46.51
2018-08-04T10:31:02.856Z,46.10
2018-08-04T10:36:06.644Z,46.36
2018-08-04T10:41:10.219Z,46.15
2018-08-04T10:46:14.332Z,46.78
2018-08-04T10:51:17.830Z,46.80
2018-08-04T10:56:21.461Z,46.89
2018-08-04T11:07:02.618Z,47.71
2018-08-04T11:12:06.210Z,47.50
2018-08-04T11:17:09.857Z,47.69
2018-08-04T11:22:13.409Z,47.39
2018-08-04T11:27:17.150Z,47.78
2018-08-04T11:32:20.688Z,47.61
2018-08-04T11:37:24.202Z,47.75
2018-08-04T11:42:27.616Z,47.76
2018-08-04T11:47:31.097Z,47.96
2018-08-04T11:52:34.709Z,47.79
2018-08-04T11:57:38.409Z,47.69
2018-08-04T12:02:41.885Z,47.49
2018-08-04T12:07:45.461Z,47.51
2018-08-04T12:12:49.226Z,47.01
2018-08-04T12:23:30.727Z,48.08
2018-08-04T12:28:34.194Z,48.14
2018-08-04T12:33:37.678Z,48.19
2018-08-04T12:38:41.387Z,47.56
2018-08-04T12:43:44.911Z,47.92
2018-08-04T12:48:48.609Z,47.59
2018-08-04T12:53:52.534Z,47.34
2018-08-04T12:58:56.024Z,47.57
2018-08-04T13:03:59.711Z,47.30
2018-08-04T13:09:03.265Z,47.45
2018-08-04T13:14:07.337Z,47.29
2018-08-04T13:19:11.430Z,47.01
2018-08-04T13:24:15.426Z,47.68
2018-08-04T13:29:19.323Z,47.90
2018-08-04T13:34:23.081Z,47.33
2018-08-04T13:39:26.994Z,47.42
2018-08-04T13:44:30.464Z,47.33
2018-08-04T13:49:34.173Z,47.88
2018-08-04T13:54:38.165Z,47.71
2018-08-04T13:59:41.978Z,47.73
2018-08-04T14:04:45.429Z,47.48
2018-08-04T14:09:48.996Z,47.95
2018-08-04T14:14:52.509Z,48.09
2018-08-04T14:19:56.013Z,47.91
2018-08-04T14:24:59.777Z,48.03
2018-08-04T14:30:03.637Z,48.15
2018-08-04T14:35:08.081Z,48.20
2018-08-04T14:40:12.709Z,47.79
2018-08-04T14:45:16.356Z,48.47
2018-08-04T14:50:19.852Z,47.84
2018-08-04T14:55:23.330Z,48.16
2018-08-04T15:00:26.969Z,47.75
2018-08-04T15:05:30.749Z,47.99
2018-08-04T15:10:34.461Z,48.02
2018-08-04T15:15:40.214Z,48.25
2018-08-04T15:20:43.821Z,48.30
2018-08-04T15:25:47.445Z,48.16
2018-08-04T15:30:50.985Z,48.29
2018-08-04T15:35:54.546Z,48.25
2018-08-04T15:40:58.533Z,48.63
2018-08-04T15:46:02.274Z,47.79
2018-08-04T15:51:05.990Z,48.48
2018-08-04T15:56:09.618Z,48.52
2018-08-04T16:01:13.155Z,48.48
2018-08-04T16:06:16.745Z,47.85
2018-08-04T16:11:20.290Z,48.25
2018-08-04T16:16:24.511Z,48.28
2018-08-04T16:21:28.380Z,48.21
2018-08-04T16:26:31.902Z,47.86
2018-08-04T16:31:35.634Z,48.68
2018-08-04T16:36:39.242Z,48.69
2018-08-04T16:41:43.117Z,49.27
2018-08-04T16:46:46.661Z,48.84
2018-08-04T16:51:50.100Z,48.94
2018-08-04T16:56:53.721Z,48.37
2018-08-04T17:01:57.676Z,48.83
2018-08-04T17:07:01.122Z,49.18
2018-08-04T17:12:04.649Z,48.77
2018-08-04T17:17:08.473Z,48.98
2018-08-04T17:22:12.001Z,48.67
2018-08-04T17:27:15.478Z,48.93
2018-08-04T17:32:19.069Z,48.69
2018-08-04T17:37:22.658Z,49.11
2018-08-04T17:42:26.134Z,48.73
2018-08-04T17:47:29.605Z,48.77
2018-08-04T17:52:33.090Z,49.12
2018-08-04T17:57:36.695Z,48.71
2018-08-04T18:02:40.744Z,48.98
2018-08-04T18:07:44.366Z,48.93
2018-08-04T18:12:47.826Z,48.82
2018-08-04T18:17:51.425Z,48.89
2018-08-04T18:22:54.861Z,49.47
2018-08-04T18:27:58.299Z,49.45
2018-08-04T18:33:01.852Z,49.69
2018-08-04T18:38:05.362Z,49.09
2018-08-04T18:43:08.915Z,49.69
2018-08-04T18:48:12.476Z,49.19
2018-08-04T18:53:16.045Z,49.45
2018-08-04T18:58:19.525Z,49.65
2018-08-04T19:03:23.130Z,49.25
2018-08-04T19:08:26.634Z,49.01
2018-08-04T19:13:30.078Z,48.37
2018-08-04T19:18:33.560Z,47.24
2018-08-04T19:23:37.165Z,45.99
2018-08-04T19:28:40.732Z,43.90
2018-08-04T19:33:44.205Z,42.82
2018-08-04T19:38:47.665Z,41.81
2018-08-04T19:43:51.243Z,41.09
2018-08-04T19:48:54.885Z,41.47
2018-08-04T19:53:58.466Z,40.91
2018-08-04T19:59:02.053Z,42.23
2018-08-04T20:04:05.631Z,41.02
2018-08-04T20:09:10.652Z,42.51
2018-08-04T20:14:14.137Z,43.45
2018-08-04T20:19:17.629Z,43.33
2018-08-04T20:24:21.135Z,43.20
2018-08-04T20:29:24.619Z,42.31
2018-08-04T20:34:28.183Z,42.25
2018-08-04T20:39:31.738Z,42.18
2018-08-04T20:44:35.339Z,41.55
2018-08-04T20:49:38.812Z,41.72
2018-08-04T20:54:42.330Z,42.53
2018-08-04T20:59:45.868Z,42.06
2018-08-04T21:04:49.401Z,41.77
2018-08-04T21:09:52.934Z,41.28
2018-08-04T21:14:56.430Z,41.13
2018-08-04T21:19:59.921Z,41.25
2018-08-04T21:25:03.557Z,40.54
2018-08-04T21:30:07.802Z,40.86
2018-08-04T21:35:11.266Z,41.25
2018-08-04T21:40:14.777Z,41.13
2018-08-04T21:45:18.432Z,41.60
2018-08-04T21:50:21.950Z,41.08
2018-08-04T21:55:25.598Z,41.16
2018-08-04T22:00:29.210Z,41.35
2018-08-04T22:05:32.991Z,41.84
2018-08-04T22:10:36.539Z,40.99
2018-08-04T22:15:40.038Z,41.53
2018-08-04T22:20:43.479Z,40.80
2018-08-04T22:25:46.905Z,41.11
2018-08-04T22:30:50.442Z,40.40
2018-08-04T22:35:53.949Z,40.80
2018-08-04T22:40:57.529Z,40.98
2018-08-04T22:46:03.957Z,41.17
2018-08-04T22:51:07.526Z,40.89
2018-08-04T22:56:11.009Z,41.74
2018-08-04T23:01:14.530Z,41.56
2018-08-04T23:06:18.066Z,41.52
2018-08-04T23:11:21.549Z,41.54
2018-08-04T23:16:25.153Z,41.99
2018-08-04T23:21:28.637Z,42.32
2018-08-04T23:26:32.141Z,41.90
2018-08-04T23:31:35.704Z,41.79
2018-08-04T23:36:39.241Z,41.83
2018-08-04T23:41:42.817Z,41.67
2018-08-04T23:46:46.341Z,41.56
2018-08-04T23:51:49.968Z,42.04
2018-08-04T23:56:53.501Z,42.17
